Stations météo

réclame
Mon MeteoGroup
Idre, Suède (2307): Température de l'air & dewpoint: 18.01.2020 16:00:00 - 24.01.2020 16:00:00 (CET)Idre, Suède (2307): Vitesse du vent & gusts: 18.01.2020 16:00:00 - 24.01.2020 16:00:00 (CET)Idre, Suède (2307): Direction du vent: 18.01.2020 16:00:00 - 24.01.2020 16:00:00 (CET)
Date & Time tt [°C] td [°C] ff [km/h] ff [knt] fx [km/h] fx [knt] dd
24.01.2020 16:00:00 -2,8 -8,6 29 16 43 23 W
24.01.2020 15:00:00 -2,7 -8,4 25 13 39 21 WSW
24.01.2020 14:00:00 -2,4 -9,1 14 8 32 18 WSW
24.01.2020 13:00:00 -2,2 -10,0 23 13 35 19 WSW
24.01.2020 12:00:00 -3,0 -9,5 21 12 34 18 WSW
24.01.2020 11:00:00 -3,2 -9,0 23 12 33 18 WSW
24.01.2020 10:00:00 -3,2 -7,9 23 13 34 18 W
24.01.2020 09:00:00 -3,6 -7,4 16 9 28 15 WNW
24.01.2020 08:00:00 -2,8 -6,3 16 9 23 13 W
24.01.2020 07:00:00 -2,8 -5,9 13 7 17 9 W
24.01.2020 06:00:00 -2,5 -5,5 11 6 16 9 NW
24.01.2020 05:00:00 -2,2 -5,7 12 7 21 11 WNW
24.01.2020 04:00:00 -1,9 -4,9 14 7 29 16 NNW
24.01.2020 03:00:00 -1,5 -4,8 20 11 29 15 W
24.01.2020 02:00:00 -1,1 -4,4 22 12 34 18 W
24.01.2020 01:00:00 -0,8 -4,0 24 13 37 20 WSW
24.01.2020 00:00:00 -0,9 -4,3 23 13 34 19 WSW
23.01.2020 23:00:00 -0,6 -4,1 24 13 33 18 WSW
23.01.2020 22:00:00 -0,2 -4,1 20 11 28 15 W
23.01.2020 21:00:00 0,0 -3,9 21 11 34 18 WSW
23.01.2020 20:00:00 0,1 -3,8 22 12 35 19 WSW
23.01.2020 19:00:00 -0,4 -3,9 21 12 38 20 SW
23.01.2020 18:00:00 -0,2 -4,3 26 14 37 20 SW
23.01.2020 17:00:00 -0,2 -4,6 29 16 45 24 WSW
23.01.2020 16:00:00 -0,5 -5,1 24 13 39 21 SW
23.01.2020 15:00:00 -0,4 -5,8 25 14 34 19 SW
23.01.2020 14:00:00 -0,1 -5,9 23 13 34 18 W
23.01.2020 13:00:00 -0,6 -6,0 26 14 35 19 W
23.01.2020 12:00:00 -2,5 -6,9 28 15 36 20 WSW
23.01.2020 11:00:00 -3,7 -7,5 23 12 37 20 WSW
23.01.2020 10:00:00 -3,7 -7,8 19 10 36 19 W
23.01.2020 09:00:00 -3,5 -8,0 23 13 34 18 WSW
23.01.2020 08:00:00 -4,2 -9,0 17 9 27 14 WSW
23.01.2020 07:00:00 -4,2 -9,6 16 9 23 13 SSW
23.01.2020 06:00:00 -4,2 -10,4 15 8 21 11 SSW
23.01.2020 05:00:00 -4,4 -10,0 16 8 23 12 SSW
23.01.2020 04:00:00 -5,0 -8,1 13 7 - - SW
23.01.2020 03:00:00 -4,8 -9,6 12 7 17 9 SW
23.01.2020 02:00:00 -4,7 -10,1 12 6 19 11 SW
23.01.2020 01:00:00 -4,7 -10,1 14 8 26 14 W
23.01.2020 00:00:00 -5,1 -9,5 18 10 25 14 W
22.01.2020 23:00:00 -4,4 -10,0 19 10 32 17 W
22.01.2020 22:00:00 -4,8 -9,4 24 13 32 17 W
22.01.2020 21:00:00 -4,5 -9,5 19 11 46 25 W
22.01.2020 20:00:00 -4,1 -9,1 24 13 39 21 NW
22.01.2020 19:00:00 -4,5 -8,4 27 15 36 20 W
22.01.2020 18:00:00 -4,3 -9,1 22 12 46 25 NW
22.01.2020 17:00:00 -4,2 -9,6 27 15 46 25 WNW
22.01.2020 16:00:00 -4,6 -9,4 35 19 65 35 NW
22.01.2020 15:00:00 -4,3 -8,9 47 25 76 41 NNW
22.01.2020 14:00:00 -4,0 -8,8 44 24 59 32 NW
22.01.2020 13:00:00 -3,8 -8,8 38 20 61 33 NW
22.01.2020 12:00:00 -3,7 -8,7 44 24 92 50 NW
22.01.2020 11:00:00 -3,8 -7,9 65 35 90 49 NW
22.01.2020 10:00:00 -4,0 -7,6 59 32 83 45 NW
22.01.2020 09:00:00 -4,1 -7,5 45 24 93 50 NW
22.01.2020 08:00:00 -4,3 -7,7 65 35 94 51 NW
22.01.2020 07:00:00 -4,2 -7,6 60 32 92 50 NW
22.01.2020 06:00:00 -4,3 -7,6 62 34 86 47 NW
22.01.2020 05:00:00 -4,6 -6,4 51 28 84 46 NW
22.01.2020 04:00:00 -4,2 -8,0 57 31 99 54 NW
22.01.2020 03:00:00 -4,1 -7,7 65 35 87 47 NW
22.01.2020 02:00:00 -4,0 -7,6 50 27 77 42 NW
22.01.2020 01:00:00 -3,8 -7,4 50 27 85 46 NW
22.01.2020 00:00:00 -3,3 -6,1 44 24 75 40 WNW
21.01.2020 23:00:00 -3,4 -4,8 44 24 64 34 NW
21.01.2020 22:00:00 -2,9 -4,5 33 18 59 32 WNW
21.01.2020 21:00:00 -3,2 -5,4 39 21 56 30 W
21.01.2020 20:00:00 -2,7 -6,9 45 24 57 31 W
21.01.2020 19:00:00 -2,6 -7,3 37 20 49 26 W
21.01.2020 18:00:00 -2,4 -7,5 40 21 53 29 W
21.01.2020 17:00:00 -2,3 -7,4 42 23 58 31 W
21.01.2020 16:00:00 -2,4 -7,7 40 21 51 28 W
21.01.2020 15:00:00 -2,7 -8,6 32 17 53 28 W
21.01.2020 14:00:00 -2,5 -9,0 41 22 56 30 W
21.01.2020 13:00:00 -2,0 -8,7 42 23 65 35 W
21.01.2020 12:00:00 -2,1 -8,2 54 29 69 37 W
21.01.2020 11:00:00 -2,3 -7,8 53 28 71 39 W
21.01.2020 10:00:00 -1,6 -8,1 45 25 69 37 WNW
21.01.2020 09:00:00 -2,0 -6,7 34 19 57 31 NW
21.01.2020 08:00:00 -1,7 -6,6 40 21 64 34 NW
21.01.2020 07:00:00 -1,6 -5,3 41 22 66 36 NW
21.01.2020 06:00:00 -0,9 -5,1 37 20 56 30 NW
21.01.2020 05:00:00 -0,7 -3,7 42 23 66 35 NNW
21.01.2020 04:00:00 0,3 -1,6 35 19 49 27 NNW
21.01.2020 03:00:00 0,6 -0,3 33 18 48 26 NW
21.01.2020 02:00:00 4,0 -1,0 37 20 49 27 W
21.01.2020 01:00:00 3,8 -0,4 36 20 54 29 WSW
21.01.2020 00:00:00 3,7 -0,1 32 18 50 27 WSW
20.01.2020 23:00:00 3,9 0,2 26 14 50 27 W
20.01.2020 22:00:00 4,2 0,2 27 15 39 21 WSW
20.01.2020 21:00:00 4,8 -0,2 26 14 51 27 WSW
20.01.2020 20:00:00 5,0 -0,4 37 20 61 33 W
20.01.2020 19:00:00 4,4 -0,4 37 20 52 28 W
20.01.2020 18:00:00 4,5 -0,5 40 22 68 37 W
20.01.2020 17:00:00 3,6 -0,8 32 17 65 35 WSW
20.01.2020 16:00:00 4,0 -0,6 47 25 61 33 W
20.01.2020 15:00:00 4,3 -0,9 40 22 58 32 W
20.01.2020 14:00:00 3,7 -1,5 36 20 66 36 W
20.01.2020 13:00:00 2,0 -2,3 34 18 45 24 W
20.01.2020 12:00:00 0,3 -3,7 22 12 39 21 WSW
20.01.2020 11:00:00 0,4 -3,9 23 12 38 20 WSW
20.01.2020 10:00:00 0,0 -3,9 27 15 36 19 WSW
20.01.2020 09:00:00 -0,2 -4,1 25 13 35 19 WSW
20.01.2020 08:00:00 -1,4 -4,9 23 12 32 17 WSW
20.01.2020 07:00:00 -1,4 -5,3 12 7 20 11 WSW
20.01.2020 06:00:00 -1,8 -5,3 18 10 27 15 WSW
20.01.2020 05:00:00 -2,2 -5,3 19 10 27 14 WSW
20.01.2020 04:00:00 -2,4 -5,2 24 13 31 17 SW
20.01.2020 03:00:00 -2,9 -4,9 23 13 31 17 SW
20.01.2020 02:00:00 -3,2 -4,8 19 11 28 15 SW
20.01.2020 01:00:00 -3,4 -5,6 20 11 29 16 SW
20.01.2020 00:00:00 -3,5 -8,0 17 9 24 13 SW
19.01.2020 23:00:00 -3,4 -10,3 16 9 27 14 W
19.01.2020 22:00:00 -3,6 -11,1 21 11 31 17 WSW
19.01.2020 21:00:00 -3,4 -11,4 23 13 30 16 W
19.01.2020 20:00:00 -4,0 -11,0 14 8 29 16 W
19.01.2020 19:00:00 -4,1 -10,1 23 12 30 16 W
19.01.2020 18:00:00 -3,7 -9,9 19 10 33 18 WNW
19.01.2020 17:00:00 -3,6 -9,8 16 9 53 29 WNW
19.01.2020 16:00:00 -2,8 -8,9 45 24 74 40 NW
19.01.2020 15:00:00 -2,9 -9,4 51 28 98 53 NW
19.01.2020 14:00:00 -3,0 -8,5 69 37 93 50 NW
19.01.2020 13:00:00 -2,8 -8,5 60 32 93 50 NW
19.01.2020 12:00:00 -2,8 -7,0 65 35 102 55 NW
19.01.2020 11:00:00 -2,1 -7,0 63 34 96 52 NW
19.01.2020 10:00:00 -2,0 -6,9 54 29 81 44 NW
19.01.2020 09:00:00 -2,3 -7,2 46 25 75 41 NW
19.01.2020 08:00:00 -1,9 -6,5 52 28 74 40 WNW
19.01.2020 07:00:00 -1,5 -6,1 50 27 67 36 WNW
19.01.2020 06:00:00 -2,4 -6,1 36 19 54 29 WNW
19.01.2020 05:00:00 -2,7 -6,3 36 19 56 30 W
19.01.2020 04:00:00 -2,4 -6,4 36 19 51 27 WNW
19.01.2020 03:00:00 -2,8 -7,0 35 19 46 25 W
19.01.2020 02:00:00 -2,9 -7,2 31 17 45 24 W
19.01.2020 01:00:00 -3,5 -7,6 23 13 34 19 WNW
19.01.2020 00:00:00 -2,8 -7,3 26 14 41 22 WNW
18.01.2020 23:00:00 -2,8 -7,1 21 11 32 17 NW
18.01.2020 22:00:00 -2,8 -6,6 11 6 23 13 WNW
18.01.2020 21:00:00 -2,5 -4,7 20 11 29 16 NW
18.01.2020 20:00:00 -1,9 -3,9 21 11 28 15 NNW
18.01.2020 19:00:00 -1,8 -3,1 16 9 24 13 NNW
18.01.2020 18:00:00 -1,4 -2,4 19 10 24 13 NNW
18.01.2020 17:00:00 -1,1 -1,8 18 10 23 12 NW
18.01.2020 16:00:00 -0,9 -1,7 16 9 22 12 NW

tt = Température de l'air
td = dewpoint
ff = Vitesse du vent
fx = gusts
dd = Direction du vent

stations d'obs. à proximité